Time;durP1;ratioP1;P1;durP2;ratioP2;P2;SDS_P1;SDS_P2;PMS_P1;PMS_P2;Temp;Humidity;BMP_temperature;BMP_pressure;BME280_temperature;BME280_humidity;BME280_pressure;Samples;Min_cycle;Max_cycle;Signal;HPM_P1;HPM_P2
2021/10/21 00:01:23;;;;;;;16.85;12.35;;;15.90;99.90;;;;;;5012596;28;20125;-75
2021/10/21 00:03:48;;;;;;;17.45;12.27;;;15.90;99.90;;;;;;5012580;28;20089;-75
2021/10/21 00:06:14;;;;;;;19.05;12.10;;;15.90;99.90;;;;;;5012616;28;20029;-72
2021/10/21 00:08:40;;;;;;;18.65;11.77;;;15.90;99.90;;;;;;5012228;28;20133;-76
2021/10/21 00:11:06;;;;;;;20.45;11.30;;;15.90;99.90;;;;;;5012046;28;20379;-76
2021/10/21 00:13:31;;;;;;;18.08;11.15;;;15.90;99.90;;;;;;5009661;28;20091;-76
2021/10/21 00:15:57;;;;;;;22.30;12.13;;;16.00;99.90;;;;;;5009702;28;20021;-73
2021/10/21 00:18:23;;;;;;;18.30;11.50;;;15.90;99.90;;;;;;5009540;28;20097;-75
2021/10/21 00:20:48;;;;;;;16.80;11.20;;;15.90;99.90;;;;;;5011127;28;20084;-72
2021/10/21 00:23:14;;;;;;;19.67;11.38;;;15.90;99.90;;;;;;5011897;28;20034;-75
2021/10/21 00:25:40;;;;;;;21.05;11.65;;;15.90;99.90;;;;;;5027198;28;20076;-76
2021/10/21 00:28:05;;;;;;;19.65;11.32;;;15.90;99.90;;;;;;5012167;28;20518;-76
2021/10/21 00:30:31;;;;;;;15.27;11.40;;;16.00;99.90;;;;;;5011573;28;20022;-75
2021/10/21 00:32:57;;;;;;;16.00;10.68;;;15.90;99.90;;;;;;5011003;28;20030;-74
2021/10/21 00:35:23;;;;;;;16.48;11.10;;;15.90;99.90;;;;;;5011248;28;20088;-74
2021/10/21 00:37:49;;;;;;;22.83;11.05;;;15.90;99.90;;;;;;5011479;28;20041;-76
2021/10/21 00:40:15;;;;;;;20.90;10.13;;;15.90;99.90;;;;;;5011398;28;20018;-77
2021/10/21 00:42:40;;;;;;;15.27;10.48;;;16.00;99.90;;;;;;5011033;28;20057;-73
2021/10/21 00:45:06;;;;;;;21.52;11.13;;;15.90;99.90;;;;;;5011703;28;20168;-74
2021/10/21 00:47:32;;;;;;;19.83;11.05;;;15.90;99.90;;;;;;5012488;28;20482;-76
2021/10/21 00:49:58;;;;;;;18.27;10.07;;;15.90;99.90;;;;;;5012205;28;20036;-76
2021/10/21 00:52:24;;;;;;;16.58;10.25;;;15.90;99.90;;;;;;5012396;28;20034;-76
2021/10/21 00:54:51;;;;;;;15.98;10.27;;;15.90;99.90;;;;;;5010848;28;20073;-73
2021/10/21 00:57:17;;;;;;;18.25;9.85;;;15.90;99.90;;;;;;5012224;28;20054;-73
2021/10/21 00:59:45;;;;;;;16.73;10.32;;;15.90;99.90;;;;;;5012649;28;20414;-73
2021/10/21 01:02:12;;;;;;;18.92;9.68;;;15.90;99.90;;;;;;5012471;28;20040;-76
2021/10/21 01:04:39;;;;;;;17.75;8.63;;;15.90;99.90;;;;;;5012387;28;20026;-76
2021/10/21 01:07:05;;;;;;;17.15;9.00;;;16.00;99.90;;;;;;5012204;28;20100;-77
2021/10/21 01:09:32;;;;;;;13.25;8.73;;;16.00;99.90;;;;;;5011980;28;20502;-77
2021/10/21 01:11:57;;;;;;;15.38;9.63;;;16.00;99.90;;;;;;5011974;28;20461;-76
2021/10/21 01:14:23;;;;;;;12.85;9.10;;;15.90;99.90;;;;;;5012185;28;20065;-77
2021/10/21 01:16:49;;;;;;;15.07;9.40;;;16.00;99.90;;;;;;5014269;28;20034;-74
2021/10/21 01:19:20;;;;;;;14.60;8.65;;;16.00;99.90;;;;;;5016602;28;20656;-76
2021/10/21 01:21:47;;;;;;;14.52;8.45;;;16.00;99.90;;;;;;5015647;28;20389;-77
2021/10/21 01:24:13;;;;;;;16.05;9.27;;;16.00;99.90;;;;;;5013368;28;20093;-76
2021/10/21 01:26:43;;;;;;;22.23;9.43;;;16.00;99.90;;;;;;5015928;28;20046;-71
2021/10/21 01:29:09;;;;;;;12.90;8.80;;;16.00;99.90;;;;;;5016005;28;20064;-76
2021/10/21 01:31:36;;;;;;;20.65;9.13;;;16.00;99.90;;;;;;5013622;28;20033;-76
2021/10/21 01:34:08;;;;;;;18.00;9.38;;;16.00;99.90;;;;;;5012865;28;20050;-76
2021/10/21 01:36:35;;;;;;;12.88;8.23;;;16.00;99.90;;;;;;5015932;28;20042;-72
2021/10/21 01:39:01;;;;;;;20.50;9.05;;;16.00;99.90;;;;;;5015649;28;20581;-76
2021/10/21 01:41:27;;;;;;;12.65;8.23;;;16.00;99.90;;;;;;5015476;28;20045;-75
2021/10/21 01:43:52;;;;;;;18.80;7.75;;;16.00;99.90;;;;;;5015306;28;20068;-73
2021/10/21 01:46:20;;;;;;;12.52;8.35;;;16.00;99.90;;;;;;5014787;28;20445;-76
2021/10/21 01:48:45;;;;;;;13.68;7.55;;;16.00;99.90;;;;;;5015525;28;20044;-76
2021/10/21 01:51:11;;;;;;;18.38;7.50;;;16.00;99.90;;;;;;5015005;28;20548;-76
2021/10/21 01:53:37;;;;;;;14.43;8.50;;;15.90;99.90;;;;;;5016137;28;20077;-77
2021/10/21 01:56:02;;;;;;;21.83;9.07;;;16.00;99.90;;;;;;5015443;28;20082;-76
2021/10/21 01:58:28;;;;;;;12.15;7.53;;;15.90;99.90;;;;;;5014430;28;20030;-76
2021/10/21 02:00:54;;;;;;;15.15;9.25;;;15.90;99.90;;;;;;5030336;28;20038;-73
2021/10/21 02:03:19;;;;;;;12.55;7.70;;;16.00;99.90;;;;;;5014904;28;20088;-74
2021/10/21 02:05:45;;;;;;;13.80;8.30;;;15.90;99.90;;;;;;5014344;28;20096;-76
2021/10/21 02:08:11;;;;;;;11.52;7.30;;;15.90;99.90;;;;;;5014336;28;20034;-73
2021/10/21 02:10:37;;;;;;;9.63;6.90;;;15.90;99.90;;;;;;5022874;28;20066;-73
2021/10/21 02:13:03;;;;;;;16.10;8.27;;;15.90;99.90;;;;;;5014640;28;20034;-77
2021/10/21 02:15:29;;;;;;;15.57;7.70;;;15.90;99.90;;;;;;5014782;28;20022;-77
2021/10/21 02:17:55;;;;;;;15.75;7.40;;;15.80;99.90;;;;;;5014110;28;20513;-77
2021/10/21 02:20:20;;;;;;;12.18;7.68;;;15.80;99.90;;;;;;5014223;28;20026;-76
2021/10/21 02:22:49;;;;;;;17.35;6.93;;;15.80;99.90;;;;;;5014808;28;20034;-75
2021/10/21 02:25:16;;;;;;;15.80;7.72;;;15.80;99.90;;;;;;5010816;28;20109;-75
2021/10/21 02:27:41;;;;;;;12.80;7.03;;;15.80;99.90;;;;;;5004439;28;20386;-73
2021/10/21 02:30:09;;;;;;;16.10;7.18;;;15.80;99.90;;;;;;5014027;28;20038;-74
2021/10/21 02:32:35;;;;;;;22.95;7.30;;;15.80;99.90;;;;;;5013871;28;20137;-77
2021/10/21 02:35:01;;;;;;;11.38;6.90;;;15.80;99.90;;;;;;5029969;28;20116;-78
2021/10/21 02:37:27;;;;;;;18.58;7.07;;;15.90;99.90;;;;;;5014511;28;20076;-73
2021/10/21 02:39:52;;;;;;;14.40;6.97;;;15.90;99.90;;;;;;5012731;28;20063;-75
2021/10/21 02:42:18;;;;;;;19.75;8.45;;;15.90;99.90;;;;;;5012391;28;20073;-77
2021/10/21 02:44:44;;;;;;;12.52;7.25;;;15.90;99.90;;;;;;5011376;28;20033;-75
2021/10/21 02:47:09;;;;;;;15.68;6.88;;;15.90;99.90;;;;;;5010667;28;20041;-73
2021/10/21 02:49:35;;;;;;;11.35;6.60;;;15.90;99.90;;;;;;5011399;28;20040;-76
2021/10/21 02:52:01;;;;;;;15.57;7.78;;;16.00;99.90;;;;;;5010921;28;20034;-76
2021/10/21 02:54:26;;;;;;;12.65;7.75;;;15.90;99.90;;;;;;5011374;28;20030;-74
2021/10/21 02:56:52;;;;;;;17.27;8.10;;;15.90;99.90;;;;;;5011548;28;20125;-76
2021/10/21 02:59:18;;;;;;;13.80;7.30;;;15.80;99.90;;;;;;5012104;28;20026;-73
2021/10/21 03:01:44;;;;;;;14.70;7.50;;;15.80;99.90;;;;;;5012338;28;20681;-77
2021/10/21 03:04:10;;;;;;;27.23;7.38;;;15.80;99.90;;;;;;5011864;28;20437;-76
2021/10/21 03:06:35;;;;;;;16.38;8.20;;;15.70;99.90;;;;;;5012001;28;20061;-76
2021/10/21 03:09:01;;;;;;;16.45;8.15;;;15.70;99.90;;;;;;5013653;28;20033;-77
2021/10/21 03:11:27;;;;;;;18.42;8.35;;;15.70;99.90;;;;;;5013756;28;20037;-76
2021/10/21 03:13:52;;;;;;;14.15;7.35;;;15.70;99.90;;;;;;5014291;28;20038;-74
2021/10/21 03:16:18;;;;;;;23.08;7.72;;;15.70;99.90;;;;;;5029026;28;20030;-74
2021/10/21 03:18:44;;;;;;;15.63;7.72;;;15.70;99.90;;;;;;5014166;28;20481;-73
2021/10/21 03:21:09;;;;;;;18.38;8.10;;;15.70;99.90;;;;;;5013848;28;20478;-78
2021/10/21 03:23:35;;;;;;;16.55;8.25;;;15.80;99.90;;;;;;5014079;28;20113;-73
2021/10/21 03:26:01;;;;;;;23.60;8.45;;;15.80;99.90;;;;;;5013978;28;20033;-77
2021/10/21 03:28:26;;;;;;;16.27;7.78;;;15.80;99.90;;;;;;5013724;28;20496;-76
2021/10/21 03:30:52;;;;;;;28.52;8.48;;;15.70;99.90;;;;;;5013781;28;20048;-73
2021/10/21 03:33:18;;;;;;;16.85;8.00;;;15.70;99.90;;;;;;5013661;28;20108;-73
2021/10/21 03:35:43;;;;;;;12.07;7.80;;;15.70;99.90;;;;;;5013320;28;20088;-76
2021/10/21 03:38:09;;;;;;;15.38;7.25;;;15.70;99.90;;;;;;5013522;28;20545;-77
2021/10/21 03:40:35;;;;;;;15.23;7.78;;;15.60;99.90;;;;;;5011755;28;20118;-76
2021/10/21 03:43:00;;;;;;;23.77;8.02;;;15.60;99.90;;;;;;5013258;28;20065;-77
2021/10/21 03:45:26;;;;;;;11.30;7.55;;;15.70;99.90;;;;;;5013372;28;20026;-77
2021/10/21 03:47:52;;;;;;;18.00;8.63;;;15.70;99.90;;;;;;5013435;28;20092;-73
2021/10/21 03:50:18;;;;;;;16.23;7.53;;;15.70;99.90;;;;;;5013542;28;20080;-73
2021/10/21 03:52:43;;;;;;;14.13;7.13;;;15.70;99.90;;;;;;5013392;28;20030;-77
2021/10/21 03:55:09;;;;;;;22.65;8.32;;;15.70;99.90;;;;;;5013448;28;20041;-75
2021/10/21 03:57:36;;;;;;;14.95;8.07;;;15.70;99.90;;;;;;5013064;28;20034;-73
2021/10/21 04:00:02;;;;;;;17.60;8.32;;;15.70;99.90;;;;;;5013292;28;20030;-77
2021/10/21 04:02:28;;;;;;;14.82;8.60;;;15.60;99.90;;;;;;5012416;28;20065;-77
2021/10/21 04:04:53;;;;;;;24.60;8.45;;;15.70;99.90;;;;;;5013345;28;20057;-77
2021/10/21 04:07:19;;;;;;;26.55;8.95;;;15.60;99.90;;;;;;5013102;28;20033;-73
2021/10/21 04:09:45;;;;;;;19.77;8.10;;;15.60;99.90;;;;;;5012872;28;20034;-75
2021/10/21 04:12:10;;;;;;;22.85;7.95;;;15.60;99.90;;;;;;5012844;28;20087;-74
2021/10/21 04:14:36;;;;;;;18.77;9.02;;;15.60;99.90;;;;;;5010865;28;20107;-73
2021/10/21 04:17:02;;;;;;;18.67;8.07;;;15.50;99.90;;;;;;5011292;28;20030;-76
2021/10/21 04:19:28;;;;;;;16.20;8.38;;;15.50;99.90;;;;;;5012382;28;20037;-76
2021/10/21 04:21:53;;;;;;;16.73;8.85;;;15.50;99.90;;;;;;5012702;28;20022;-77
2021/10/21 04:24:19;;;;;;;18.05;9.60;;;15.50;99.90;;;;;;5012751;28;20034;-76
2021/10/21 04:26:44;;;;;;;23.65;9.55;;;15.50;99.90;;;;;;5012864;28;20479;-78
2021/10/21 04:29:10;;;;;;;16.33;8.02;;;15.40;99.90;;;;;;5013022;28;20034;-76
2021/10/21 04:31:36;;;;;;;15.48;8.48;;;15.40;99.90;;;;;;5012336;28;20026;-73
2021/10/21 04:34:01;;;;;;;19.73;9.20;;;15.40;99.90;;;;;;5012227;28;20034;-74
2021/10/21 04:36:27;;;;;;;14.45;9.05;;;15.40;99.90;;;;;;5012665;28;20046;-77
2021/10/21 04:38:53;;;;;;;19.73;8.73;;;15.40;99.90;;;;;;5012730;28;20030;-76
2021/10/21 04:41:18;;;;;;;18.65;8.60;;;15.40;99.90;;;;;;5027217;28;20080;-77
2021/10/21 04:43:44;;;;;;;15.15;8.60;;;15.30;99.90;;;;;;5011391;28;20084;-74
2021/10/21 04:46:09;;;;;;;18.85;9.82;;;15.30;99.90;;;;;;5012655;28;20037;-74
2021/10/21 04:48:35;;;;;;;21.33;8.65;;;15.30;99.90;;;;;;5012614;28;20501;-74
2021/10/21 04:51:01;;;;;;;15.25;10.38;;;15.30;99.90;;;;;;5013456;28;20360;-76
2021/10/21 04:53:26;;;;;;;17.02;8.43;;;15.30;99.90;;;;;;5016356;28;20065;-73
2021/10/21 04:55:52;;;;;;;15.60;8.88;;;15.30;99.90;;;;;;5016164;28;20022;-76
2021/10/21 04:58:18;;;;;;;19.52;8.32;;;15.30;99.90;;;;;;5016521;28;20041;-74
2021/10/21 05:00:43;;;;;;;14.65;7.95;;;15.30;99.90;;;;;;5015450;28;20030;-73
2021/10/21 05:03:11;;;;;;;15.60;7.95;;;15.30;99.90;;;;;;5016436;28;20025;-73
2021/10/21 05:05:39;;;;;;;20.42;8.23;;;15.30;99.90;;;;;;5016087;28;20564;-75
2021/10/21 05:08:05;;;;;;;17.55;7.50;;;15.30;99.90;;;;;;5015345;28;20387;-74
2021/10/21 05:10:31;;;;;;;16.08;7.43;;;15.40;99.90;;;;;;5016287;28;20034;-75
2021/10/21 05:12:57;;;;;;;13.02;6.25;;;15.40;99.90;;;;;;5015550;28;20129;-74
2021/10/21 05:15:23;;;;;;;14.80;6.78;;;15.40;99.90;;;;;;5031067;28;20030;-73
2021/10/21 05:17:50;;;;;;;18.33;7.50;;;15.50;99.90;;;;;;5015568;28;20073;-74
2021/10/21 05:20:15;;;;;;;14.00;6.85;;;15.40;99.90;;;;;;5015544;28;20101;-77
2021/10/21 05:22:41;;;;;;;15.98;7.07;;;15.50;99.90;;;;;;5015668;28;20053;-74
2021/10/21 05:25:08;;;;;;;19.15;7.97;;;15.50;99.90;;;;;;5015752;28;20425;-74
2021/10/21 05:27:36;;;;;;;17.60;7.68;;;15.50;99.90;;;;;;5014489;28;20052;-76
2021/10/21 05:30:03;;;;;;;16.65;7.55;;;15.50;99.90;;;;;;5028284;28;20030;-76
2021/10/21 05:32:29;;;;;;;14.80;7.20;;;15.50;99.90;;;;;;5014761;28;20478;-76
2021/10/21 05:34:54;;;;;;;16.52;7.07;;;15.50;99.90;;;;;;5015515;28;20049;-76
2021/10/21 05:37:21;;;;;;;16.65;6.65;;;15.50;99.90;;;;;;5015313;28;20042;-77
2021/10/21 05:39:47;;;;;;;31.38;7.30;;;15.50;99.90;;;;;;5015311;28;20057;-77
2021/10/21 05:42:12;;;;;;;19.65;7.07;;;15.50;99.90;;;;;;5014834;28;20077;-75
2021/10/21 05:44:38;;;;;;;10.68;7.00;;;15.50;99.90;;;;;;5014531;28;20026;-76
2021/10/21 05:47:04;;;;;;;14.68;7.25;;;15.50;99.90;;;;;;5030373;28;20528;-76
2021/10/21 05:49:30;;;;;;;12.40;7.03;;;15.60;99.90;;;;;;5015901;28;20030;-75
2021/10/21 05:51:56;;;;;;;15.38;8.05;;;15.60;99.90;;;;;;5015260;28;20038;-76
2021/10/21 05:54:22;;;;;;;18.40;7.68;;;15.50;99.90;;;;;;5014887;28;20478;-76
2021/10/21 05:56:48;;;;;;;18.30;7.47;;;15.60;99.90;;;;;;5014901;28;20038;-76
2021/10/21 05:59:13;;;;;;;17.55;8.07;;;15.60;99.90;;;;;;5014769;28;20038;-77
2021/10/21 06:01:40;;;;;;;22.95;7.55;;;15.60;99.90;;;;;;5013968;28;20113;-75
2021/10/21 06:04:05;;;;;;;28.40;7.85;;;15.60;99.90;;;;;;5013490;28;20113;-77
2021/10/21 06:06:34;;;;;;;14.85;7.20;;;15.60;99.90;;;;;;5014574;28;20526;-76
2021/10/21 06:09:02;;;;;;;17.40;7.20;;;15.60;99.90;;;;;;5014706;28;20034;-73
2021/10/21 06:11:29;;;;;;;25.80;7.88;;;15.60;99.90;;;;;;5014564;28;20040;-76
2021/10/21 06:13:56;;;;;;;15.05;7.13;;;15.60;99.90;;;;;;5014659;28;20105;-76
2021/10/21 06:16:22;;;;;;;14.77;6.82;;;15.60;99.90;;;;;;5015091;28;20030;-74
2021/10/21 06:18:48;;;;;;;23.33;8.70;;;15.60;99.90;;;;;;5015012;28;20030;-76
2021/10/21 06:21:20;;;;;;;19.88;7.30;;;15.70;99.90;;;;;;5014863;28;20390;-75
2021/10/21 06:23:46;;;;;;;18.98;6.90;;;15.70;99.90;;;;;;5015111;28;20042;-76
2021/10/21 06:26:13;;;;;;;19.38;7.13;;;15.70;99.90;;;;;;5014734;28;20030;-76
2021/10/21 06:28:40;;;;;;;20.23;6.00;;;15.80;99.90;;;;;;5014946;28;20429;-75
2021/10/21 06:31:05;;;;;;;23.63;7.13;;;15.80;99.90;;;;;;5015132;28;20121;-76
2021/10/21 06:33:31;;;;;;;19.08;7.72;;;15.90;99.90;;;;;;5014525;28;20061;-77
2021/10/21 06:35:57;;;;;;;25.75;7.05;;;15.90;99.90;;;;;;5014571;28;20418;-74
2021/10/21 06:38:23;;;;;;;16.02;6.28;;;15.90;99.90;;;;;;5014137;28;20050;-76
2021/10/21 06:40:49;;;;;;;17.27;6.13;;;15.90;99.90;;;;;;5014253;28;20025;-76
2021/10/21 06:43:14;;;;;;;26.27;6.32;;;16.00;99.90;;;;;;5014147;28;20165;-76
2021/10/21 06:45:40;;;;;;;15.30;6.38;;;16.00;99.90;;;;;;5013184;28;20026;-77
2021/10/21 06:48:06;;;;;;;19.90;6.60;;;16.00;99.90;;;;;;5014311;28;20541;-77
2021/10/21 06:50:32;;;;;;;22.65;6.60;;;16.10;99.90;;;;;;5014220;28;20030;-76
2021/10/21 06:52:58;;;;;;;20.63;6.60;;;16.10;99.90;;;;;;5014401;28;20540;-77
2021/10/21 06:55:24;;;;;;;17.15;5.70;;;16.10;99.90;;;;;;5014966;28;20030;-76
2021/10/21 06:57:57;;;;;;;16.58;6.00;;;16.10;99.90;;;;;;5014405;28;20046;-78
2021/10/21 07:00:23;;;;;;;19.42;5.90;;;16.10;99.90;;;;;;5014459;28;20042;-77
2021/10/21 07:02:49;;;;;;;18.60;5.93;;;16.10;99.90;;;;;;5014330;28;20042;-78
2021/10/21 07:05:16;;;;;;;24.52;6.70;;;16.20;99.90;;;;;;5014282;28;20550;-76
2021/10/21 07:07:42;;;;;;;13.48;6.00;;;16.20;99.90;;;;;;5013101;28;20030;-78
2021/10/21 07:10:09;;;;;;;20.15;6.40;;;16.20;99.90;;;;;;5013942;28;20036;-73
2021/10/21 07:12:39;;;;;;;17.60;6.55;;;16.20;99.90;;;;;;5014136;28;20049;-78
2021/10/21 07:15:07;;;;;;;19.73;5.93;;;16.30;99.90;;;;;;5014056;28;20037;-76
2021/10/21 07:17:33;;;;;;;14.55;6.32;;;16.30;99.90;;;;;;5014096;28;20085;-78
2021/10/21 07:20:00;;;;;;;18.63;6.65;;;16.20;99.90;;;;;;5013741;28;20045;-76
2021/10/21 07:22:26;;;;;;;15.63;6.05;;;16.20;99.90;;;;;;5014100;28;20034;-75
2021/10/21 07:24:51;;;;;;;20.17;6.60;;;16.30;99.90;;;;;;5013841;28;20030;-75
2021/10/21 07:27:18;;;;;;;32.22;6.45;;;16.40;99.90;;;;;;5013804;28;20112;-78
2021/10/21 07:29:44;;;;;;;18.77;5.65;;;16.50;99.90;;;;;;5013542;28;20054;-77
2021/10/21 07:32:10;;;;;;;19.02;5.82;;;16.50;99.90;;;;;;5013717;28;20026;-73
2021/10/21 07:34:36;;;;;;;26.83;5.85;;;16.50;99.90;;;;;;5028756;28;20030;-74
2021/10/21 07:37:02;;;;;;;18.92;5.88;;;16.50;99.90;;;;;;5013583;28;20030;-78
2021/10/21 07:39:28;;;;;;;22.95;6.15;;;16.60;99.90;;;;;;5012505;28;20124;-74
2021/10/21 07:41:55;;;;;;;23.25;5.68;;;16.70;99.90;;;;;;5013118;28;20077;-77
2021/10/21 07:44:20;;;;;;;23.98;5.70;;;16.70;99.90;;;;;;4999920;28;20034;-75
2021/10/21 07:46:47;;;;;;;20.30;5.68;;;16.80;99.90;;;;;;5013061;28;20049;-77
2021/10/21 07:49:14;;;;;;;16.52;6.15;;;16.80;99.90;;;;;;5012858;28;20030;-76
2021/10/21 07:51:40;;;;;;;18.80;5.50;;;16.80;99.90;;;;;;5013260;28;20034;-76
2021/10/21 07:54:07;;;;;;;28.15;5.43;;;16.90;99.90;;;;;;5012932;28;20394;-73
2021/10/21 07:56:33;;;;;;;19.00;5.78;;;16.80;99.90;;;;;;5012972;28;20034;-76
2021/10/21 07:59:00;;;;;;;15.23;5.45;;;16.80;99.90;;;;;;5012596;28;20034;-75
2021/10/21 08:01:26;;;;;;;18.10;5.47;;;16.80;99.90;;;;;;5012707;28;20088;-78
2021/10/21 08:03:53;;;;;;;19.30;6.85;;;16.90;99.90;;;;;;5013076;28;20041;-78
2021/10/21 08:06:19;;;;;;;16.85;5.55;;;16.90;99.90;;;;;;5013372;28;20479;-78
2021/10/21 08:08:45;;;;;;;15.82;6.63;;;16.90;99.90;;;;;;5013540;28;20038;-78
2021/10/21 08:11:10;;;;;;;16.13;5.60;;;16.90;99.90;;;;;;5013178;28;20025;-74
2021/10/21 08:13:36;;;;;;;20.30;5.80;;;16.80;99.90;;;;;;5011858;28;20069;-74
2021/10/21 08:16:02;;;;;;;20.45;5.75;;;16.90;99.90;;;;;;5012397;28;20053;-74
2021/10/21 08:18:28;;;;;;;20.73;6.45;;;16.90;99.90;;;;;;5012926;28;20034;-74
2021/10/21 08:20:54;;;;;;;27.42;5.38;;;16.80;99.90;;;;;;5013240;28;20534;-75
2021/10/21 08:23:20;;;;;;;16.60;5.75;;;16.90;99.90;;;;;;5012925;28;20079;-75
2021/10/21 08:25:46;;;;;;;16.98;5.95;;;16.90;99.90;;;;;;5012592;28;20027;-75
2021/10/21 08:28:12;;;;;;;27.50;5.05;;;16.90;99.90;;;;;;5013153;28;20028;-74
2021/10/21 08:30:41;;;;;;;24.55;9.02;;;16.90;99.90;;;;;;5013043;28;20478;-75
2021/10/21 08:33:07;;;;;;;20.80;6.35;;;16.90;99.90;;;;;;5012688;28;20038;-75
2021/10/21 08:35:34;;;;;;;15.40;6.38;;;16.90;99.90;;;;;;5012678;28;20386;-77
2021/10/21 08:38:01;;;;;;;13.90;5.40;;;16.90;99.90;;;;;;5012850;28;20038;-75
2021/10/21 08:40:29;;;;;;;19.48;5.65;;;16.90;99.90;;;;;;5012455;28;20042;-74
2021/10/21 08:42:54;;;;;;;19.52;6.53;;;17.00;99.90;;;;;;5012089;28;20506;-73
2021/10/21 08:45:20;;;;;;;18.77;7.53;;;17.00;99.90;;;;;;5012247;28;20112;-72
2021/10/21 08:47:49;;;;;;;17.25;5.80;;;17.00;99.90;;;;;;5028202;28;20044;-79
2021/10/21 08:50:16;;;;;;;14.65;5.55;;;17.10;99.90;;;;;;5012772;28;20406;-80
2021/10/21 08:52:44;;;;;;;19.92;6.07;;;17.00;99.90;;;;;;5012777;28;20026;-80
2021/10/21 08:55:11;;;;;;;21.08;5.55;;;17.00;99.90;;;;;;5012787;28;20094;-81
2021/10/21 08:57:37;;;;;;;27.73;7.25;;;17.10;99.90;;;;;;5012541;28;20228;-78
2021/10/21 09:00:04;;;;;;;19.30;5.40;;;17.10;99.90;;;;;;5012238;28;20093;-80
2021/10/21 09:02:56;;;;;;;19.92;6.88;;;17.10;99.90;;;;;;5011892;28;20541;-80
2021/10/21 09:08:11;;;;;;;24.75;6.65;;;17.10;99.90;;;;;;5013844;28;20113;-80
2021/10/21 09:10:49;;;;;;;20.48;6.07;;;17.10;99.90;;;;;;5012887;28;20447;-77
2021/10/21 09:13:28;;;;;;;16.48;5.75;;;17.10;99.90;;;;;;5009633;28;20026;-80
2021/10/21 09:16:00;;;;;;;15.95;6.28;;;17.20;99.90;;;;;;5012562;28;20121;-79
2021/10/21 09:18:38;;;;;;;18.98;6.43;;;17.20;99.90;;;;;;4999597;28;20042;-75
2021/10/21 09:21:04;;;;;;;11.93;5.57;;;17.20;99.90;;;;;;5011941;28;20026;-78
2021/10/21 09:23:30;;;;;;;20.05;6.05;;;17.20;99.90;;;;;;5012641;28;20041;-78
2021/10/21 09:26:09;;;;;;;18.50;6.25;;;17.20;99.90;;;;;;5012445;28;20038;-75
2021/10/21 09:28:34;;;;;;;21.33;5.97;;;17.20;99.90;;;;;;4998775;28;20125;-80
2021/10/21 09:31:09;;;;;;;15.93;5.63;;;17.30;99.90;;;;;;5012455;28;20590;-79
2021/10/21 09:34:01;;;;;;;25.33;5.80;;;17.30;99.90;;;;;;5027311;28;20038;-80
2021/10/21 09:36:26;;;;;;;15.27;5.47;;;17.30;99.90;;;;;;5011024;28;20038;-80
2021/10/21 09:38:54;;;;;;;15.05;5.07;;;17.30;99.90;;;;;;5015805;28;20041;-74
2021/10/21 09:41:32;;;;;;;31.35;5.55;;;17.40;99.90;;;;;;5015102;28;20038;-80
2021/10/21 09:43:58;;;;;;;12.90;5.15;;;17.30;99.90;;;;;;5015196;28;20434;-80
2021/10/21 09:46:42;;;;;;;22.52;5.53;;;17.40;99.90;;;;;;4997822;28;20391;-80
2021/10/21 09:49:29;;;;;;;23.02;5.53;;;17.40;99.90;;;;;;5024534;28;20037;-80
2021/10/21 09:51:56;;;;;;;24.73;6.20;;;17.40;99.90;;;;;;5001744;28;20038;-80
2021/10/21 09:54:22;;;;;;;18.60;5.53;;;17.50;99.90;;;;;;5011083;28;20145;-80
2021/10/21 09:57:05;;;;;;;16.42;4.88;;;17.50;99.90;;;;;;5001173;28;20557;-79
2021/10/21 09:59:34;;;;;;;22.77;5.38;;;17.50;99.90;;;;;;5004551;28;20045;-80
2021/10/21 10:02:21;;;;;;;15.38;5.70;;;17.50;99.90;;;;;;4999222;28;20088;-80
2021/10/21 10:04:57;;;;;;;25.38;5.55;;;17.50;99.90;;;;;;5001293;28;20061;-79
2021/10/21 10:07:25;;;;;;;15.98;5.97;;;17.50;99.90;;;;;;5009263;28;20073;-80
2021/10/21 10:09:51;;;;;;;19.52;5.95;;;17.50;99.90;;;;;;5007541;28;20033;-81
2021/10/21 10:12:18;;;;;;;15.45;5.00;;;17.50;99.90;;;;;;5006076;28;20026;-81
2021/10/21 10:14:47;;;;;;;20.08;5.78;;;17.50;99.90;;;;;;5011567;28;20030;-73
2021/10/21 10:17:13;;;;;;;16.33;5.95;;;17.40;99.90;;;;;;5014725;28;20385;-78
2021/10/21 10:19:47;;;;;;;16.60;5.18;;;17.50;99.90;;;;;;5014200;28;20040;-74
2021/10/21 10:22:35;;;;;;;18.80;5.50;;;17.50;99.90;;;;;;5004440;28;20046;-75
2021/10/21 10:25:18;;;;;;;12.13;4.90;;;17.50;99.90;;;;;;5009947;28;20490;-78
2021/10/21 10:27:53;;;;;;;19.73;4.75;;;17.50;99.90;;;;;;5000232;28;20026;-77
2021/10/21 10:30:47;;;;;;;16.83;5.28;;;17.50;99.90;;;;;;5002724;28;20030;-78
2021/10/21 10:33:42;;;;;;;21.80;5.30;;;17.60;99.90;;;;;;5002515;28;20030;-80
2021/10/21 10:36:29;;;;;;;15.25;4.68;;;17.60;99.90;;;;;;5011254;28;20505;-77
2021/10/21 10:39:04;;;;;;;11.52;4.38;;;17.60;99.90;;;;;;5009094;28;20038;-74
2021/10/21 10:41:48;;;;;;;13.43;5.05;;;17.60;99.90;;;;;;5010293;28;20033;-80
2021/10/21 10:44:35;;;;;;;13.82;5.75;;;17.70;99.90;;;;;;5008835;28;20041;-79
2021/10/21 10:47:02;;;;;;;12.32;4.97;;;17.60;99.90;;;;;;4996854;28;20035;-75
2021/10/21 10:49:49;;;;;;;18.80;4.78;;;17.60;99.90;;;;;;4998664;28;20026;-75
2021/10/21 10:52:17;;;;;;;19.23;4.85;;;17.60;99.90;;;;;;5006014;28;20060;-81
2021/10/21 10:54:51;;;;;;;9.70;4.90;;;17.70;99.90;;;;;;5008139;28;20037;-74
2021/10/21 10:57:23;;;;;;;13.90;5.45;;;17.70;99.90;;;;;;5005871;28;20048;-81
2021/10/21 10:59:49;;;;;;;7.13;4.30;;;17.60;99.90;;;;;;5002989;28;20454;-75
2021/10/21 11:02:27;;;;;;;16.40;5.57;;;17.60;99.90;;;;;;5005804;28;20112;-77
2021/10/21 11:05:03;;;;;;;9.35;4.32;;;17.70;99.90;;;;;;5002937;28;20498;-74
2021/10/21 11:07:46;;;;;;;15.40;4.30;;;17.70;99.90;;;;;;5010013;28;20045;-77
2021/10/21 11:10:19;;;;;;;16.05;4.75;;;17.60;99.90;;;;;;5010422;28;20022;-78
2021/10/21 11:12:49;;;;;;;16.67;4.82;;;17.60;99.90;;;;;;5000359;28;20039;-74
2021/10/21 11:15:34;;;;;;;16.73;4.43;;;17.60;99.90;;;;;;5003394;28;20026;-81
2021/10/21 11:18:04;;;;;;;17.85;4.32;;;17.60;99.90;;;;;;5003924;28;20181;-76
2021/10/21 11:20:35;;;;;;;16.92;4.65;;;17.60;99.90;;;;;;5004302;28;20087;-79
2021/10/21 11:23:26;;;;;;;17.85;4.15;;;17.60;99.90;;;;;;5006760;28;20161;-80
2021/10/21 11:26:10;;;;;;;16.73;4.65;;;17.70;99.90;;;;;;5000833;28;20041;-79
2021/10/21 11:28:36;;;;;;;17.83;4.60;;;17.70;99.90;;;;;;5009285;28;20041;-77
2021/10/21 11:31:02;;;;;;;15.07;5.25;;;17.60;99.90;;;;;;5005330;28;20035;-78
2021/10/21 11:33:28;;;;;;;12.30;5.38;;;17.60;99.90;;;;;;5009936;28;20037;-80
2021/10/21 11:36:00;;;;;;;15.82;6.05;;;17.60;99.90;;;;;;5009631;28;20463;-81
2021/10/21 11:38:27;;;;;;;21.70;5.45;;;17.60;99.90;;;;;;5009789;28;20045;-81
2021/10/21 11:40:56;;;;;;;12.10;5.70;;;17.50;99.90;;;;;;5002739;28;20498;-77
2021/10/21 11:43:45;;;;;;;12.85;5.78;;;17.50;99.90;;;;;;5004830;28;20420;-79
2021/10/21 11:46:13;;;;;;;25.45;5.68;;;17.60;99.90;;;;;;5003862;28;20077;-79
2021/10/21 11:48:40;;;;;;;23.35;5.53;;;17.50;99.90;;;;;;5005850;28;20045;-77
2021/10/21 11:51:09;;;;;;;15.35;4.70;;;17.50;99.90;;;;;;5003880;28;20038;-77
2021/10/21 11:53:35;;;;;;;14.60;4.85;;;17.50;99.90;;;;;;4998873;28;20030;-76
2021/10/21 11:56:01;;;;;;;19.10;4.63;;;17.50;99.90;;;;;;5008754;28;20026;-79
2021/10/21 11:58:30;;;;;;;14.55;4.38;;;17.40;99.90;;;;;;5006598;28;20038;-77
2021/10/21 12:00:58;;;;;;;27.13;8.30;;;17.40;99.90;;;;;;5008525;28;20462;-79
2021/10/21 12:03:35;;;;;;;17.75;6.18;;;17.40;99.90;;;;;;5003478;28;20038;-78
2021/10/21 12:06:02;;;;;;;19.33;9.00;;;17.40;99.90;;;;;;5002110;28;20046;-78
2021/10/21 12:08:28;;;;;;;22.98;5.70;;;17.30;99.90;;;;;;5000430;28;20061;-77
2021/10/21 12:11:02;;;;;;;14.57;6.57;;;17.30;99.90;;;;;;5007444;28;20026;-78
2021/10/21 12:13:37;;;;;;;14.77;5.32;;;17.20;99.90;;;;;;4997793;28;20036;-75
2021/10/21 12:16:12;;;;;;;14.43;5.13;;;17.30;99.90;;;;;;5011487;28;20390;-80
2021/10/21 12:18:38;;;;;;;19.67;6.90;;;17.30;99.90;;;;;;5011884;28;20038;-80
2021/10/21 12:21:06;;;;;;;30.83;10.00;;;17.30;99.90;;;;;;5011464;28;20022;-80
2021/10/21 12:23:34;;;;;;;17.92;8.55;;;17.30;99.90;;;;;;5011664;28;20042;-80
2021/10/21 12:26:05;;;;;;;30.27;8.85;;;17.20;99.90;;;;;;4995800;28;20038;-78
2021/10/21 12:28:47;;;;;;;15.32;7.13;;;17.20;99.90;;;;;;5005292;28;20026;-80
2021/10/21 12:31:27;;;;;;;36.83;7.60;;;17.20;99.90;;;;;;5005977;28;20049;-75
2021/10/21 12:34:01;;;;;;;30.75;12.30;;;17.20;99.90;;;;;;4997447;28;20061;-80
2021/10/21 12:36:34;;;;;;;26.73;9.30;;;17.20;99.90;;;;;;5010226;28;20034;-77
2021/10/21 12:39:08;;;;;;;24.15;7.50;;;17.20;99.90;;;;;;5012052;28;20474;-81
2021/10/21 12:41:49;;;;;;;33.13;10.45;;;17.10;99.90;;;;;;5004045;28;20050;-78
2021/10/21 12:44:17;;;;;;;40.10;14.23;;;17.10;99.90;;;;;;5011681;28;20030;-77